createdAt,value
2018-12-15T00:02:26.578Z,21.40
2018-12-15T00:07:31.736Z,21.40
2018-12-15T00:12:36.613Z,21.40
2018-12-15T00:17:41.482Z,21.30
2018-12-15T00:22:46.347Z,21.30
2018-12-15T00:27:51.314Z,21.30
2018-12-15T00:32:56.214Z,21.30
2018-12-15T00:38:01.043Z,21.30
2018-12-15T00:43:06.517Z,21.30
2018-12-15T00:48:11.072Z,21.30
2018-12-15T00:53:16.045Z,21.30
2018-12-15T00:58:21.409Z,21.20
2018-12-15T01:03:26.540Z,21.20
2018-12-15T01:08:31.881Z,21.20
2018-12-15T01:13:37.860Z,21.20
2018-12-15T01:18:43.519Z,21.20
2018-12-15T01:23:49.306Z,21.20
2018-12-15T01:28:55.919Z,21.20
2018-12-15T01:34:02.950Z,21.20
2018-12-15T01:39:09.610Z,21.10
2018-12-15T01:44:14.934Z,21.20
2018-12-15T01:49:20.830Z,21.10
2018-12-15T01:54:25.579Z,21.10
2018-12-15T01:59:30.461Z,21.00
2018-12-15T02:04:36.332Z,21.10
2018-12-15T02:09:42.523Z,21.00
2018-12-15T02:14:48.653Z,21.00
2018-12-15T02:19:54.480Z,21.00
2018-12-15T02:25:01.897Z,21.00
2018-12-15T02:30:07.176Z,21.00
2018-12-15T02:35:12.949Z,21.00
2018-12-15T02:40:18.890Z,21.00
2018-12-15T02:45:24.421Z,21.00
2018-12-15T02:50:29.865Z,21.00
2018-12-15T02:55:35.471Z,21.00
2018-12-15T03:00:40.818Z,21.00
2018-12-15T03:05:45.761Z,21.10
2018-12-15T03:10:50.390Z,21.00
2018-12-15T03:15:55.220Z,21.10
2018-12-15T03:21:03.892Z,21.10
2018-12-15T03:26:08.377Z,21.10
2018-12-15T03:31:13.494Z,21.10
2018-12-15T03:36:18.870Z,21.20
2018-12-15T03:41:24.105Z,21.20
2018-12-15T03:46:29.460Z,21.20
2018-12-15T03:51:34.170Z,21.20
2018-12-15T03:56:39.111Z,21.20
2018-12-15T04:01:44.578Z,21.20
2018-12-15T04:06:49.890Z,21.20
2018-12-15T04:11:54.707Z,21.20
2018-12-15T04:16:59.971Z,21.20
2018-12-15T04:22:21.333Z,21.20
2018-12-15T04:27:26.463Z,21.30
2018-12-15T04:32:31.373Z,21.30
2018-12-15T04:37:36.371Z,21.30
2018-12-15T04:42:41.570Z,21.30
2018-12-15T04:47:46.767Z,21.30
2018-12-15T04:52:51.260Z,21.30
2018-12-15T04:57:56.469Z,21.30
2018-12-15T05:03:02.023Z,21.40
2018-12-15T05:08:07.140Z,21.40
2018-12-15T05:13:12.510Z,21.40
2018-12-15T05:18:18.359Z,21.40
2018-12-15T05:23:22.361Z,21.40
2018-12-15T05:28:27.370Z,21.40
2018-12-15T05:33:32.390Z,21.40
2018-12-15T05:38:37.312Z,21.40
2018-12-15T05:43:42.441Z,21.40
2018-12-15T05:48:47.332Z,21.50
2018-12-15T05:53:52.476Z,21.50
2018-12-15T05:58:57.650Z,21.50
2018-12-15T06:04:03.940Z,21.50
2018-12-15T06:09:08.930Z,21.50
2018-12-15T06:14:13.891Z,21.50
2018-12-15T06:19:19.081Z,21.60
2018-12-15T06:24:24.921Z,21.50
2018-12-15T06:29:29.651Z,21.50
2018-12-15T06:34:34.391Z,21.60
2018-12-15T06:39:39.250Z,21.60
2018-12-15T06:44:44.161Z,21.60
2018-12-15T06:49:49.403Z,21.60
2018-12-15T06:54:54.701Z,21.60
2018-12-15T06:59:59.490Z,21.60
2018-12-15T07:05:04.652Z,21.70
2018-12-15T07:10:10.150Z,21.70
2018-12-15T07:15:14.819Z,21.70
2018-12-15T07:20:19.550Z,21.70
2018-12-15T07:25:24.831Z,21.80
2018-12-15T07:30:29.860Z,21.80
2018-12-15T07:35:35.680Z,21.20
2018-12-15T07:40:40.700Z,21.40
2018-12-15T07:45:45.794Z,21.50
2018-12-15T07:50:51.148Z,21.60
2018-12-15T07:55:56.390Z,21.70
2018-12-15T08:01:02.254Z,21.80
2018-12-15T08:06:07.566Z,21.90
2018-12-15T08:11:29.802Z,22.00
2018-12-15T08:16:35.160Z,22.00
2018-12-15T08:21:41.671Z,22.00
2018-12-15T08:26:47.367Z,22.00
2018-12-15T08:31:52.854Z,22.10
2018-12-15T08:36:59.159Z,22.20
2018-12-15T08:42:04.260Z,22.20
2018-12-15T08:47:09.539Z,22.30
2018-12-15T08:52:14.791Z,22.30
2018-12-15T08:57:25.850Z,22.40
2018-12-15T09:02:30.710Z,22.50
2018-12-15T09:07:35.548Z,22.60
2018-12-15T09:12:40.798Z,22.60
2018-12-15T09:17:46.050Z,22.70
2018-12-15T09:22:52.380Z,22.70
2018-12-15T09:27:58.189Z,22.70
2018-12-15T09:33:03.559Z,22.90
2018-12-15T09:38:08.650Z,22.90
2018-12-15T09:43:14.120Z,23.00
2018-12-15T09:48:19.621Z,23.10
2018-12-15T09:53:24.545Z,23.10
2018-12-15T09:58:29.585Z,23.20
2018-12-15T10:03:34.780Z,23.20
2018-12-15T10:08:39.999Z,23.30
2018-12-15T10:13:44.729Z,23.30
2018-12-15T10:18:49.378Z,23.30
2018-12-15T10:23:54.898Z,23.40
2018-12-15T10:29:00.179Z,23.40
2018-12-15T10:34:05.478Z,23.40
2018-12-15T10:39:11.168Z,23.40
2018-12-15T10:44:16.572Z,23.50
2018-12-15T10:49:21.708Z,23.50
2018-12-15T10:54:26.399Z,22.60
2018-12-15T10:59:31.429Z,22.50
2018-12-15T11:04:36.740Z,22.80
2018-12-15T11:09:41.221Z,22.20
2018-12-15T11:14:46.529Z,22.70
2018-12-15T11:19:51.412Z,23.00
2018-12-15T11:24:57.339Z,23.20
2018-12-15T11:30:01.920Z,23.30
2018-12-15T11:35:07.340Z,23.30
2018-12-15T11:40:12.160Z,23.30
2018-12-15T11:45:16.960Z,23.30
2018-12-15T11:50:23.511Z,23.40
2018-12-15T11:55:28.010Z,23.40
2018-12-15T12:00:33.009Z,23.50
2018-12-15T12:05:39.020Z,23.50
2018-12-15T12:10:44.127Z,23.60
2018-12-15T12:15:49.330Z,23.60
2018-12-15T12:20:54.029Z,23.50
2018-12-15T12:25:58.820Z,23.50
2018-12-15T12:31:04.735Z,23.50
2018-12-15T12:36:09.959Z,23.60
2018-12-15T12:41:15.305Z,23.50
2018-12-15T12:46:21.040Z,23.50
2018-12-15T12:51:26.172Z,23.60
2018-12-15T12:56:30.750Z,23.60
2018-12-15T13:01:35.461Z,23.70
2018-12-15T13:06:41.650Z,23.70
2018-12-15T13:11:47.029Z,23.80
2018-12-15T13:16:52.039Z,23.80
2018-12-15T13:21:57.458Z,23.90
2018-12-15T13:27:02.439Z,23.30
2018-12-15T13:32:08.019Z,23.70
2018-12-15T13:37:12.370Z,23.80
2018-12-15T13:42:17.649Z,25.10
2018-12-15T13:47:22.830Z,26.10
2018-12-15T13:52:27.910Z,25.90
2018-12-15T13:57:33.350Z,25.80
2018-12-15T14:02:38.749Z,25.30
2018-12-15T14:07:44.011Z,24.60
2018-12-15T14:12:48.941Z,24.20
2018-12-15T14:17:54.150Z,24.00
2018-12-15T14:22:59.139Z,23.80
2018-12-15T14:28:04.029Z,23.70
2018-12-15T14:33:08.980Z,23.60
2018-12-15T14:38:13.949Z,23.50
2018-12-15T14:43:18.821Z,23.50
2018-12-15T14:48:24.805Z,23.50
2018-12-15T14:53:30.561Z,23.40
2018-12-15T14:58:35.175Z,23.30
2018-12-15T15:03:40.280Z,23.30
2018-12-15T15:08:45.759Z,23.30
2018-12-15T15:13:52.847Z,23.30
2018-12-15T15:18:57.404Z,23.20
2018-12-15T15:24:02.593Z,23.20
2018-12-15T15:29:07.699Z,23.10
2018-12-15T15:34:12.900Z,23.10
2018-12-15T15:39:17.889Z,23.10
2018-12-15T15:44:22.799Z,23.10
2018-12-15T15:49:27.989Z,23.10
2018-12-15T15:54:32.729Z,23.00
2018-12-15T15:59:37.949Z,23.00
2018-12-15T16:04:43.479Z,22.90
2018-12-15T16:09:48.548Z,22.90
2018-12-15T16:14:53.139Z,22.90
2018-12-15T16:19:58.252Z,22.80
2018-12-15T16:25:02.800Z,22.80
2018-12-15T16:30:11.368Z,22.80
2018-12-15T16:35:15.991Z,22.80
2018-12-15T16:40:21.499Z,22.70
2018-12-15T16:45:26.269Z,22.70
2018-12-15T16:50:31.629Z,22.70
2018-12-15T16:55:36.631Z,22.70
2018-12-15T17:00:41.871Z,22.70
2018-12-15T17:05:46.979Z,22.60
2018-12-15T17:10:51.869Z,22.60
2018-12-15T17:15:56.961Z,22.60
2018-12-15T17:21:02.250Z,22.50
2018-12-15T17:26:06.970Z,22.50
2018-12-15T17:31:12.380Z,22.50
2018-12-15T17:36:17.570Z,22.50
2018-12-15T17:41:22.619Z,22.50
2018-12-15T17:46:27.860Z,22.40
2018-12-15T17:51:33.090Z,22.40
2018-12-15T17:56:37.933Z,22.40
2018-12-15T18:01:42.601Z,22.40
2018-12-15T18:06:47.468Z,22.30
2018-12-15T18:11:52.319Z,22.30
2018-12-15T18:16:57.648Z,22.30
2018-12-15T18:22:02.920Z,22.30
2018-12-15T18:27:07.719Z,22.30
2018-12-15T18:32:13.050Z,22.30
2018-12-15T18:37:18.101Z,22.20
2018-12-15T18:42:22.969Z,22.20
2018-12-15T18:47:28.179Z,22.20
2018-12-15T18:52:32.915Z,22.20
2018-12-15T18:57:38.135Z,22.20
2018-12-15T19:02:42.940Z,22.10
2018-12-15T19:07:48.399Z,22.10
2018-12-15T19:12:52.981Z,22.10
2018-12-15T19:17:58.170Z,22.10
2018-12-15T19:23:02.851Z,22.10
2018-12-15T19:28:07.479Z,22.00
2018-12-15T19:33:12.153Z,22.10
2018-12-15T19:38:17.109Z,22.00
2018-12-15T19:43:22.210Z,22.00
2018-12-15T19:48:26.870Z,22.00
2018-12-15T19:53:32.039Z,21.90
2018-12-15T19:58:36.820Z,21.90
2018-12-15T20:03:42.389Z,21.90
2018-12-15T20:08:47.349Z,21.90
2018-12-15T20:13:52.400Z,21.90
2018-12-15T20:18:57.921Z,21.90
2018-12-15T20:24:02.759Z,21.90
2018-12-15T20:29:08.109Z,21.80
2018-12-15T20:34:13.272Z,21.80
2018-12-15T20:39:17.851Z,21.80
2018-12-15T20:44:24.110Z,21.80
2018-12-15T20:49:28.816Z,21.80
2018-12-15T20:54:33.930Z,21.80
2018-12-15T20:59:39.232Z,21.70
2018-12-15T21:04:44.120Z,21.70
2018-12-15T21:09:49.359Z,21.70
2018-12-15T21:14:54.030Z,21.70
2018-12-15T21:19:58.990Z,21.70
2018-12-15T21:25:03.819Z,21.70
2018-12-15T21:30:09.741Z,21.70
2018-12-15T21:35:14.970Z,21.70
2018-12-15T21:40:20.219Z,21.60
2018-12-15T21:45:26.699Z,21.60
2018-12-15T21:50:31.838Z,21.60
2018-12-15T21:55:37.090Z,21.60
2018-12-15T22:00:42.179Z,21.60
2018-12-15T22:05:47.469Z,21.50
2018-12-15T22:10:52.841Z,21.50
2018-12-15T22:15:57.732Z,21.50
2018-12-15T22:21:03.049Z,21.50
2018-12-15T22:26:07.849Z,21.50
2018-12-15T22:31:12.778Z,21.50
2018-12-15T22:36:17.621Z,21.40
2018-12-15T22:41:22.809Z,21.40
2018-12-15T22:46:28.079Z,21.40
2018-12-15T22:51:33.339Z,21.40
2018-12-15T22:56:39.612Z,21.40
2018-12-15T23:01:48.109Z,21.40
2018-12-15T23:06:52.849Z,21.40
2018-12-15T23:11:57.959Z,21.40
2018-12-15T23:17:03.278Z,21.40
2018-12-15T23:22:08.056Z,21.40
2018-12-15T23:27:12.699Z,21.40
2018-12-15T23:32:17.778Z,21.30
2018-12-15T23:37:23.169Z,21.30
2018-12-15T23:42:27.819Z,21.30
2018-12-15T23:47:32.988Z,21.30
2018-12-15T23:52:37.719Z,21.30
2018-12-15T23:57:42.988Z,21.30
